Time;durP1;ratioP1;P1;durP2;ratioP2;P2;SDS_P1;SDS_P2;PMS_P1;PMS_P2;Temp;Humidity;BMP_temperature;BMP_pressure;BME280_temperature;BME280_humidity;BME280_pressure;Samples;Min_cycle;Max_cycle;Signal;HPM_P1;HPM_P2
2021/10/06 00:00:05;;;;;;;4.50;1.10;;;13.40;99.90;;;;;;4999123;28;20508;-79
2021/10/06 00:02:32;;;;;;;5.27;1.47;;;13.40;99.90;;;;;;4998189;28;20509;-78
2021/10/06 00:04:59;;;;;;;7.57;1.53;;;13.30;99.90;;;;;;4999750;28;20461;-78
2021/10/06 00:07:25;;;;;;;3.80;1.30;;;13.30;99.90;;;;;;5004544;28;21016;-79
2021/10/06 00:09:52;;;;;;;6.80;1.50;;;13.20;99.90;;;;;;4997419;28;20490;-79
2021/10/06 00:12:19;;;;;;;3.70;1.50;;;13.20;99.90;;;;;;4998084;28;20436;-79
2021/10/06 00:14:47;;;;;;;3.43;1.20;;;13.20;99.90;;;;;;4998597;28;20805;-79
2021/10/06 00:17:14;;;;;;;4.30;1.37;;;13.20;99.90;;;;;;4997862;28;20581;-79
2021/10/06 00:19:41;;;;;;;6.87;1.10;;;13.20;99.90;;;;;;4997525;28;20551;-78
2021/10/06 00:22:08;;;;;;;3.23;1.17;;;13.00;99.90;;;;;;5009267;28;20432;-80
2021/10/06 00:24:35;;;;;;;3.50;1.23;;;13.00;99.90;;;;;;5005133;28;20457;-78
2021/10/06 00:27:01;;;;;;;5.83;1.40;;;13.00;99.90;;;;;;4995023;28;20448;-79
2021/10/06 00:29:28;;;;;;;4.77;1.27;;;13.00;99.90;;;;;;4994362;28;20491;-78
2021/10/06 00:31:56;;;;;;;4.13;1.63;;;13.00;99.90;;;;;;4997323;28;20459;-77
2021/10/06 00:34:23;;;;;;;4.13;1.43;;;12.80;99.90;;;;;;4998865;28;20466;-79
2021/10/06 00:36:50;;;;;;;3.80;1.47;;;12.70;99.90;;;;;;4997865;28;20589;-79
2021/10/06 00:39:17;;;;;;;4.43;1.50;;;12.80;99.90;;;;;;4998337;28;20890;-77
2021/10/06 00:41:43;;;;;;;4.33;1.07;;;12.80;99.90;;;;;;5007417;28;20506;-78
2021/10/06 00:44:15;;;;;;;2.90;0.97;;;12.70;99.90;;;;;;5001064;28;20459;-78
2021/10/06 00:46:42;;;;;;;6.23;1.30;;;12.60;99.90;;;;;;5001037;28;20450;-78
2021/10/06 00:49:10;;;;;;;3.10;1.50;;;12.60;99.90;;;;;;5001943;28;20537;-78
2021/10/06 00:51:39;;;;;;;4.87;1.20;;;12.60;99.90;;;;;;5001233;28;20466;-78
2021/10/06 00:54:06;;;;;;;4.30;1.27;;;12.50;99.90;;;;;;5001057;28;20479;-79
2021/10/06 00:56:33;;;;;;;7.63;1.60;;;12.50;99.90;;;;;;5006653;28;20963;-78
2021/10/06 00:59:00;;;;;;;4.33;1.50;;;12.30;99.90;;;;;;5001625;28;20501;-79
2021/10/06 01:01:27;;;;;;;4.87;1.40;;;12.30;99.90;;;;;;5000715;28;20824;-79
2021/10/06 01:03:54;;;;;;;5.60;1.20;;;12.30;99.90;;;;;;5001218;28;20521;-79
2021/10/06 01:06:22;;;;;;;4.97;1.40;;;12.20;99.90;;;;;;5002079;28;20457;-79
2021/10/06 01:08:49;;;;;;;5.73;1.50;;;12.10;99.90;;;;;;4982322;28;20467;-79
2021/10/06 01:11:16;;;;;;;7.20;1.87;;;12.10;99.90;;;;;;5009421;28;20504;-78
2021/10/06 01:13:43;;;;;;;6.50;1.47;;;12.00;99.90;;;;;;5022963;28;20471;-79
2021/10/06 01:16:10;;;;;;;3.70;1.40;;;12.10;99.90;;;;;;5020149;28;20450;-79
2021/10/06 01:18:37;;;;;;;3.33;1.43;;;12.10;99.90;;;;;;5004805;28;20556;-79
2021/10/06 01:21:12;;;;;;;4.10;1.30;;;12.00;99.90;;;;;;5002902;28;20518;-79
2021/10/06 01:23:38;;;;;;;4.20;1.57;;;12.00;99.90;;;;;;5011517;28;20517;-79
2021/10/06 01:26:06;;;;;;;3.37;1.23;;;12.00;99.90;;;;;;5005995;28;20542;-78
2021/10/06 01:28:33;;;;;;;4.17;1.33;;;12.00;99.90;;;;;;5003565;28;20533;-78
2021/10/06 01:30:59;;;;;;;6.80;1.40;;;12.00;99.90;;;;;;5013164;28;20446;-78
2021/10/06 01:33:26;;;;;;;2.97;1.20;;;12.00;99.90;;;;;;5003025;28;20537;-78
2021/10/06 01:35:53;;;;;;;6.03;1.57;;;12.10;99.90;;;;;;4999645;28;20458;-79
2021/10/06 01:38:22;;;;;;;3.60;1.40;;;12.10;99.90;;;;;;5004973;28;20490;-78
2021/10/06 01:40:48;;;;;;;5.30;1.60;;;12.10;99.90;;;;;;5011945;28;20557;-78
2021/10/06 01:43:15;;;;;;;6.90;1.63;;;12.10;99.90;;;;;;5001196;28;20462;-79
2021/10/06 01:45:42;;;;;;;3.97;1.30;;;12.00;99.90;;;;;;5000187;28;20886;-78
2021/10/06 01:48:11;;;;;;;4.20;1.43;;;12.10;99.90;;;;;;5000636;28;20459;-79
2021/10/06 01:50:39;;;;;;;3.43;1.10;;;12.10;99.90;;;;;;5000427;28;20445;-78
2021/10/06 01:53:07;;;;;;;4.13;1.27;;;12.30;99.90;;;;;;5001206;28;20853;-78
2021/10/06 01:55:36;;;;;;;4.00;1.63;;;12.30;99.90;;;;;;5004002;28;20459;-78
2021/10/06 01:58:06;;;;;;;6.70;1.43;;;12.30;99.90;;;;;;5000667;28;20483;-78
2021/10/06 02:00:34;;;;;;;3.77;1.17;;;12.30;99.90;;;;;;4999772;28;20478;-79
2021/10/06 02:03:00;;;;;;;4.13;1.30;;;12.30;99.90;;;;;;5001391;28;20447;-78
2021/10/06 02:05:27;;;;;;;4.93;1.80;;;12.30;99.90;;;;;;5002164;28;20426;-78
2021/10/06 02:07:54;;;;;;;4.27;1.50;;;12.40;99.90;;;;;;5001509;28;20425;-80
2021/10/06 02:12:50;;;;;;;3.33;1.87;;;12.40;99.90;;;;;;5015458;28;20471;-79
2021/10/06 02:15:17;;;;;;;3.50;1.63;;;12.40;99.90;;;;;;5012947;28;20471;-79
2021/10/06 02:17:44;;;;;;;3.47;1.20;;;12.30;99.90;;;;;;5001349;28;20458;-78
2021/10/06 02:20:11;;;;;;;5.53;1.47;;;12.20;99.90;;;;;;5012053;28;20428;-78
2021/10/06 02:22:38;;;;;;;4.10;1.13;;;12.10;99.90;;;;;;5003863;28;20430;-79
2021/10/06 02:25:07;;;;;;;2.70;1.10;;;12.20;99.90;;;;;;5006672;28;20440;-79
2021/10/06 02:27:33;;;;;;;5.00;2.20;;;12.10;99.90;;;;;;5000502;28;20428;-78
2021/10/06 02:30:02;;;;;;;5.63;1.60;;;12.00;99.90;;;;;;4998204;28;20455;-78
2021/10/06 02:32:29;;;;;;;7.03;1.53;;;11.90;99.90;;;;;;4998413;28;20490;-78
2021/10/06 02:34:56;;;;;;;10.00;2.23;;;11.90;99.90;;;;;;4997567;28;20835;-79
2021/10/06 02:37:23;;;;;;;4.17;1.37;;;11.80;99.90;;;;;;4996836;28;20458;-80
2021/10/06 02:39:50;;;;;;;4.60;1.43;;;11.90;99.90;;;;;;4997897;28;20430;-79
2021/10/06 02:42:16;;;;;;;7.60;1.50;;;11.90;99.90;;;;;;4998117;28;20452;-78
2021/10/06 02:44:44;;;;;;;5.40;2.10;;;11.80;99.90;;;;;;4998817;28;20439;-79
2021/10/06 02:47:12;;;;;;;3.40;1.30;;;11.90;99.90;;;;;;4998897;28;20426;-79
2021/10/06 02:49:39;;;;;;;3.00;1.10;;;11.90;99.90;;;;;;4998974;28;20801;-80
2021/10/06 02:52:06;;;;;;;3.30;1.30;;;11.90;99.90;;;;;;4997674;28;20445;-80
2021/10/06 02:54:33;;;;;;;3.70;1.47;;;11.90;99.90;;;;;;5001710;28;20907;-78
2021/10/06 02:57:01;;;;;;;3.37;1.30;;;11.80;99.90;;;;;;5001968;28;20454;-78
2021/10/06 02:59:28;;;;;;;3.20;1.30;;;12.00;99.90;;;;;;5006173;28;20514;-78
2021/10/06 03:01:55;;;;;;;3.37;1.50;;;12.00;99.90;;;;;;4998654;28;20467;-78
2021/10/06 03:04:24;;;;;;;3.57;1.30;;;12.00;99.90;;;;;;5001445;28;20447;-78
2021/10/06 03:06:51;;;;;;;3.73;1.53;;;12.10;99.90;;;;;;5000720;28;20550;-79
2021/10/06 03:09:18;;;;;;;5.13;1.30;;;12.10;99.90;;;;;;5001617;28;20430;-79
2021/10/06 03:11:45;;;;;;;3.67;1.20;;;12.20;99.90;;;;;;5000237;28;20465;-80
2021/10/06 03:14:12;;;;;;;4.60;1.60;;;12.10;99.90;;;;;;5000654;28;20517;-78
2021/10/06 03:16:45;;;;;;;3.27;1.30;;;12.00;99.90;;;;;;5001977;28;20426;-78
2021/10/06 03:19:12;;;;;;;3.37;1.50;;;11.90;99.90;;;;;;4997612;28;20835;-79
2021/10/06 03:21:40;;;;;;;7.70;1.40;;;11.80;99.90;;;;;;4998586;28;20456;-78
2021/10/06 03:24:07;;;;;;;6.20;1.83;;;11.80;99.90;;;;;;5003411;28;20529;-78
2021/10/06 03:26:34;;;;;;;4.40;1.43;;;11.80;99.90;;;;;;5004164;28;20462;-79
2021/10/06 03:29:01;;;;;;;4.70;1.63;;;11.70;99.90;;;;;;5005692;28;20474;-79
2021/10/06 03:31:27;;;;;;;4.47;1.40;;;11.70;99.90;;;;;;5005287;28;20514;-79
2021/10/06 03:33:57;;;;;;;4.40;1.80;;;11.70;99.90;;;;;;5005799;28;20429;-79
2021/10/06 03:36:24;;;;;;;4.13;2.20;;;11.70;99.90;;;;;;5009138;28;20462;-79
2021/10/06 03:38:52;;;;;;;4.67;1.73;;;11.70;99.90;;;;;;4997922;28;20569;-78
2021/10/06 03:41:19;;;;;;;4.27;1.40;;;11.70;99.90;;;;;;4998572;28;21000;-79
2021/10/06 03:43:46;;;;;;;5.13;1.60;;;11.70;99.90;;;;;;4997652;28;20450;-79
2021/10/06 03:46:12;;;;;;;4.50;1.53;;;11.70;99.90;;;;;;4996580;28;20448;-79
2021/10/06 03:48:39;;;;;;;4.87;1.90;;;11.70;99.90;;;;;;4985647;28;20427;-79
2021/10/06 03:51:06;;;;;;;5.73;1.60;;;11.70;99.90;;;;;;4981843;28;20464;-79
2021/10/06 03:53:33;;;;;;;4.70;1.53;;;11.70;99.90;;;;;;4984422;28;20453;-78
2021/10/06 03:56:01;;;;;;;3.30;1.60;;;11.70;99.90;;;;;;4999161;28;20431;-79
2021/10/06 03:58:28;;;;;;;4.30;1.70;;;11.70;99.90;;;;;;5004813;28;20462;-79
2021/10/06 04:00:54;;;;;;;3.80;1.43;;;11.80;99.90;;;;;;5004828;28;20514;-79
2021/10/06 04:03:22;;;;;;;3.67;1.57;;;11.80;99.90;;;;;;5005473;28;20446;-79
2021/10/06 04:05:49;;;;;;;4.20;1.20;;;11.90;99.90;;;;;;5002926;28;20451;-78
2021/10/06 04:08:17;;;;;;;4.30;1.87;;;11.80;99.90;;;;;;5004170;28;20795;-79
2021/10/06 04:10:44;;;;;;;4.53;1.60;;;11.80;99.90;;;;;;5004328;28;20491;-82
2021/10/06 04:13:12;;;;;;;4.53;1.50;;;11.90;99.90;;;;;;5001968;28;20541;-78
2021/10/06 04:15:39;;;;;;;4.10;1.33;;;11.90;99.90;;;;;;4999387;28;20433;-78
2021/10/06 04:18:06;;;;;;;3.90;1.63;;;11.90;99.90;;;;;;4999846;28;20991;-80
2021/10/06 04:20:33;;;;;;;5.47;1.90;;;11.90;99.90;;;;;;5003723;28;20445;-79
2021/10/06 04:23:00;;;;;;;5.63;1.53;;;11.90;99.90;;;;;;5008056;28;20452;-79
2021/10/06 04:25:27;;;;;;;3.27;1.40;;;11.90;99.90;;;;;;5005020;28;20546;-78
2021/10/06 04:27:53;;;;;;;4.67;1.40;;;11.90;99.90;;;;;;5007097;28;20454;-78
2021/10/06 04:30:22;;;;;;;4.13;1.53;;;11.80;99.90;;;;;;5007865;28;20468;-78
2021/10/06 04:32:48;;;;;;;4.57;2.00;;;12.00;99.90;;;;;;5005029;28;20425;-78
2021/10/06 04:35:15;;;;;;;3.80;1.90;;;12.00;99.90;;;;;;5007461;28;20430;-79
2021/10/06 04:37:43;;;;;;;6.73;1.43;;;11.90;99.90;;;;;;5012442;28;20497;-79
2021/10/06 04:40:11;;;;;;;8.90;1.70;;;11.90;99.90;;;;;;5011984;28;20503;-79
2021/10/06 04:42:38;;;;;;;3.30;1.50;;;11.90;99.90;;;;;;5011236;28;20501;-78
2021/10/06 04:45:07;;;;;;;6.87;2.27;;;11.90;99.90;;;;;;5009157;28;20457;-79
2021/10/06 04:47:35;;;;;;;4.00;1.50;;;11.80;99.90;;;;;;5008324;28;20459;-80
2021/10/06 04:50:02;;;;;;;4.20;1.93;;;11.80;99.90;;;;;;5006708;28;21051;-79
2021/10/06 04:52:29;;;;;;;4.60;1.40;;;11.90;99.90;;;;;;4985835;28;20850;-78
2021/10/06 04:54:56;;;;;;;5.10;1.63;;;11.90;99.90;;;;;;5007122;28;20457;-78
2021/10/06 04:57:23;;;;;;;4.87;1.40;;;12.00;99.90;;;;;;5006916;28;20426;-79
2021/10/06 04:59:50;;;;;;;6.10;1.50;;;11.90;99.90;;;;;;5015699;28;20529;-78
2021/10/06 05:02:17;;;;;;;7.00;1.83;;;11.90;99.90;;;;;;5008374;28;20502;-79
2021/10/06 05:04:45;;;;;;;5.37;1.30;;;11.90;99.90;;;;;;5007753;28;20497;-78
2021/10/06 05:07:12;;;;;;;4.10;1.60;;;11.90;99.90;;;;;;4991760;28;20466;-78
2021/10/06 05:09:39;;;;;;;3.60;1.27;;;11.90;99.90;;;;;;5002368;28;20944;-78
2021/10/06 05:12:06;;;;;;;3.57;1.60;;;12.00;99.90;;;;;;5002872;28;20658;-78
2021/10/06 05:14:33;;;;;;;7.67;1.70;;;11.90;99.90;;;;;;5008578;28;20501;-78
2021/10/06 05:17:00;;;;;;;3.30;1.30;;;11.90;99.90;;;;;;5008984;28;20482;-78
2021/10/06 05:19:27;;;;;;;3.10;1.60;;;12.10;99.90;;;;;;5009346;28;20982;-78
2021/10/06 05:21:55;;;;;;;3.27;1.33;;;12.10;99.90;;;;;;5004871;28;20453;-78
2021/10/06 05:24:22;;;;;;;4.60;1.40;;;12.20;99.90;;;;;;5009118;28;20605;-78
2021/10/06 05:26:48;;;;;;;3.00;1.40;;;12.30;99.90;;;;;;5005682;28;20437;-78
2021/10/06 05:29:15;;;;;;;6.57;2.00;;;12.20;99.90;;;;;;5002574;28;20461;-78
2021/10/06 05:31:42;;;;;;;5.30;1.83;;;12.20;99.90;;;;;;5002842;28;20510;-78
2021/10/06 05:34:09;;;;;;;4.37;1.27;;;12.10;99.90;;;;;;5002801;28;20433;-78
2021/10/06 05:36:36;;;;;;;4.00;1.57;;;12.10;99.90;;;;;;5002034;28;20838;-78
2021/10/06 05:39:04;;;;;;;3.60;1.53;;;12.00;99.90;;;;;;5001935;28;20461;-78
2021/10/06 05:41:31;;;;;;;4.90;1.90;;;12.00;99.90;;;;;;5001169;28;20569;-78
2021/10/06 05:43:58;;;;;;;4.40;1.60;;;12.00;99.90;;;;;;5002555;28;20447;-78
2021/10/06 05:46:26;;;;;;;5.37;1.40;;;12.10;99.90;;;;;;5001469;28;20542;-78
2021/10/06 05:48:53;;;;;;;5.30;1.77;;;12.20;99.90;;;;;;5002298;28;20422;-78
2021/10/06 05:51:20;;;;;;;6.90;2.07;;;12.30;99.90;;;;;;5003206;28;20475;-78
2021/10/06 05:53:46;;;;;;;6.17;1.57;;;12.20;99.90;;;;;;5003343;28;20445;-78
2021/10/06 05:56:15;;;;;;;3.70;1.57;;;12.20;99.90;;;;;;5001314;28;20463;-78
2021/10/06 05:58:41;;;;;;;4.30;1.50;;;12.10;99.90;;;;;;5009158;28;20483;-79
2021/10/06 06:01:08;;;;;;;12.53;5.30;;;12.10;99.90;;;;;;5001866;28;20464;-78
2021/10/06 06:03:35;;;;;;;6.17;1.90;;;12.10;99.90;;;;;;5003468;28;20418;-78
2021/10/06 06:06:02;;;;;;;8.80;1.50;;;12.20;99.90;;;;;;5002730;28;20432;-78
2021/10/06 06:08:29;;;;;;;4.40;1.53;;;12.10;99.90;;;;;;5000105;28;20438;-78
2021/10/06 06:10:56;;;;;;;7.70;1.53;;;12.20;99.90;;;;;;5000505;28;20507;-79
2021/10/06 06:13:24;;;;;;;4.90;1.70;;;12.20;99.90;;;;;;5006609;28;20478;-79
2021/10/06 06:15:52;;;;;;;4.40;2.13;;;12.20;99.90;;;;;;5006299;28;20463;-79
2021/10/06 06:18:19;;;;;;;3.87;1.53;;;12.30;99.90;;;;;;5006172;28;20855;-80
2021/10/06 06:20:46;;;;;;;4.70;2.40;;;12.30;99.90;;;;;;5001565;28;20514;-80
2021/10/06 06:23:13;;;;;;;3.63;1.80;;;12.30;99.90;;;;;;5001632;28;20982;-78
2021/10/06 06:25:40;;;;;;;3.03;1.43;;;12.20;99.90;;;;;;5002456;28;20436;-80
2021/10/06 06:28:07;;;;;;;7.47;2.40;;;12.30;99.90;;;;;;5002317;28;20949;-77
2021/10/06 06:30:35;;;;;;;3.80;1.67;;;12.20;99.90;;;;;;4995467;28;20446;-76
2021/10/06 06:33:02;;;;;;;4.70;2.17;;;12.10;99.90;;;;;;4995767;28;20494;-77
2021/10/06 06:35:28;;;;;;;5.03;1.90;;;12.10;99.90;;;;;;4995720;28;20979;-80
2021/10/06 06:37:55;;;;;;;5.70;1.50;;;12.10;99.90;;;;;;4996056;28;20462;-78
2021/10/06 06:40:22;;;;;;;4.03;2.00;;;12.20;99.90;;;;;;4995796;28;20558;-80
2021/10/06 06:42:50;;;;;;;3.13;1.50;;;12.20;99.90;;;;;;4996710;28;20465;-83
2021/10/06 06:45:18;;;;;;;4.33;1.67;;;12.20;99.90;;;;;;4996125;28;20478;-79
2021/10/06 06:47:46;;;;;;;6.27;2.00;;;12.20;99.90;;;;;;4994207;28;20826;-79
2021/10/06 06:50:15;;;;;;;6.93;2.33;;;12.20;99.90;;;;;;4998516;28;20447;-80
2021/10/06 06:52:42;;;;;;;4.47;1.67;;;12.20;99.90;;;;;;4999975;28;20437;-78
2021/10/06 06:55:09;;;;;;;3.53;1.37;;;12.20;99.90;;;;;;4997429;28;20459;-77
2021/10/06 06:57:36;;;;;;;6.00;1.50;;;12.20;99.90;;;;;;4995344;28;20410;-77
2021/10/06 07:00:05;;;;;;;5.03;1.20;;;12.20;99.90;;;;;;4994530;28;20550;-76
2021/10/06 07:02:32;;;;;;;4.10;1.43;;;12.20;99.90;;;;;;4994329;28;20467;-77
2021/10/06 07:05:02;;;;;;;4.13;1.47;;;12.30;99.90;;;;;;4994389;28;20432;-77
2021/10/06 07:07:29;;;;;;;5.90;1.37;;;12.30;99.90;;;;;;4994288;28;20516;-76
2021/10/06 07:09:56;;;;;;;5.17;1.77;;;12.40;99.90;;;;;;4994469;28;20517;-77
2021/10/06 07:12:23;;;;;;;4.93;1.70;;;12.40;99.90;;;;;;4994500;28;20803;-76
2021/10/06 07:14:51;;;;;;;5.13;1.73;;;12.50;99.90;;;;;;4994538;28;20805;-76
2021/10/06 07:17:19;;;;;;;5.00;1.20;;;12.50;99.90;;;;;;4993801;28;20437;-76
2021/10/06 07:19:46;;;;;;;5.10;1.47;;;12.50;99.90;;;;;;4994203;28;20457;-76
2021/10/06 07:22:15;;;;;;;4.37;1.60;;;12.50;99.90;;;;;;4994460;28;20442;-77
2021/10/06 07:24:42;;;;;;;4.70;1.60;;;12.60;99.90;;;;;;4994527;28;20426;-76
2021/10/06 07:27:10;;;;;;;3.97;1.47;;;12.60;99.90;;;;;;4995087;28;20874;-77
2021/10/06 07:29:37;;;;;;;4.20;1.50;;;12.70;99.90;;;;;;4994939;28;20807;-77
2021/10/06 07:32:06;;;;;;;5.43;1.77;;;12.70;99.90;;;;;;4994211;28;20885;-77
2021/10/06 07:34:33;;;;;;;4.93;1.20;;;12.80;99.90;;;;;;4994368;28;20798;-76
2021/10/06 07:37:00;;;;;;;4.63;1.40;;;12.80;99.90;;;;;;4994156;28;20432;-76
2021/10/06 07:39:28;;;;;;;3.87;1.40;;;12.70;99.90;;;;;;4993945;28;20461;-76
2021/10/06 07:41:55;;;;;;;3.57;1.50;;;12.70;99.90;;;;;;4993895;28;20533;-76
2021/10/06 07:44:22;;;;;;;3.67;1.50;;;12.70;99.90;;;;;;4994295;28;20462;-77
2021/10/06 07:46:49;;;;;;;4.50;1.40;;;12.80;99.90;;;;;;4993673;28;20459;-76
2021/10/06 07:49:15;;;;;;;4.83;1.77;;;12.80;99.90;;;;;;4993837;28;20429;-77
2021/10/06 07:51:43;;;;;;;4.90;1.60;;;13.00;99.90;;;;;;4993695;28;20825;-76
2021/10/06 07:54:10;;;;;;;4.90;1.93;;;13.20;99.90;;;;;;4993742;28;20476;-76
2021/10/06 07:56:38;;;;;;;4.57;1.43;;;13.20;99.90;;;;;;4993508;28;20433;-77
2021/10/06 07:59:05;;;;;;;5.50;1.70;;;13.30;99.90;;;;;;4993484;28;20487;-77
2021/10/06 08:01:32;;;;;;;5.20;1.80;;;13.50;99.90;;;;;;4993526;28;20442;-77
2021/10/06 08:03:58;;;;;;;4.80;1.30;;;13.60;99.90;;;;;;4993447;28;20459;-77
2021/10/06 08:06:26;;;;;;;4.50;1.13;;;13.70;99.90;;;;;;4993570;28;20466;-77
2021/10/06 08:08:53;;;;;;;5.23;1.30;;;13.70;99.90;;;;;;4993623;28;20426;-77
2021/10/06 08:11:20;;;;;;;3.70;1.10;;;13.80;99.90;;;;;;5034881;23;20465;-76
2021/10/06 08:13:48;;;;;;;5.03;1.40;;;13.90;99.90;;;;;;5015475;28;20525;-79
2021/10/06 08:16:15;;;;;;;3.70;1.40;;;13.90;99.90;;;;;;5016212;28;20962;-79
2021/10/06 08:18:42;;;;;;;3.80;1.37;;;13.90;99.90;;;;;;5017444;28;20450;-79
2021/10/06 08:21:08;;;;;;;5.17;1.30;;;13.90;99.90;;;;;;5025975;28;20512;-79
2021/10/06 08:23:35;;;;;;;4.70;1.90;;;14.00;99.90;;;;;;5022013;28;20474;-80
2021/10/06 08:26:02;;;;;;;10.33;1.53;;;14.00;99.90;;;;;;5015816;28;20554;-79
2021/10/06 08:28:29;;;;;;;4.00;1.40;;;14.20;99.90;;;;;;5018532;28;21056;-78
2021/10/06 08:30:58;;;;;;;7.60;1.50;;;14.30;99.90;;;;;;5017071;28;20467;-79
2021/10/06 08:33:24;;;;;;;3.30;1.20;;;14.40;99.90;;;;;;5017109;28;20539;-78
2021/10/06 08:35:51;;;;;;;4.47;1.20;;;14.50;99.90;;;;;;5016303;28;20911;-78
2021/10/06 08:38:18;;;;;;;6.93;2.50;;;14.50;99.90;;;;;;5017460;28;20537;-78
2021/10/06 08:40:45;;;;;;;5.13;1.57;;;14.50;99.90;;;;;;4996057;28;20493;-80
2021/10/06 08:43:12;;;;;;;4.40;1.67;;;14.50;99.90;;;;;;4996055;28;20456;-78
2021/10/06 08:45:40;;;;;;;4.80;1.83;;;14.30;99.90;;;;;;4999204;28;20549;-78
2021/10/06 08:48:10;;;;;;;3.37;1.17;;;14.30;99.90;;;;;;5015830;28;20473;-80
2021/10/06 08:50:38;;;;;;;3.77;1.10;;;14.30;99.90;;;;;;5015435;28;20481;-79
2021/10/06 08:53:05;;;;;;;4.93;1.20;;;14.20;99.90;;;;;;5016538;28;20497;-79
2021/10/06 08:55:32;;;;;;;8.10;1.80;;;14.10;99.90;;;;;;5016251;28;20429;-80
2021/10/06 08:58:00;;;;;;;4.67;1.83;;;14.10;99.90;;;;;;5016434;28;20454;-80
2021/10/06 09:00:28;;;;;;;6.37;1.73;;;14.20;99.90;;;;;;5014431;28;20467;-77
2021/10/06 09:02:55;;;;;;;6.70;2.07;;;14.20;99.90;;;;;;5014898;28;20840;-78
2021/10/06 09:05:26;;;;;;;4.87;1.90;;;14.20;99.90;;;;;;5017950;28;20454;-78
2021/10/06 09:07:57;;;;;;;3.00;1.00;;;14.10;99.90;;;;;;4999956;28;20940;-78
2021/10/06 09:10:25;;;;;;;4.50;1.40;;;14.10;99.90;;;;;;4999623;28;20977;-77
2021/10/06 09:12:57;;;;;;;4.53;1.30;;;14.40;99.90;;;;;;4999342;28;20449;-78
2021/10/06 09:15:24;;;;;;;6.20;1.43;;;14.70;99.90;;;;;;5012569;28;20525;-79
2021/10/06 09:17:57;;;;;;;5.60;1.77;;;14.80;99.90;;;;;;5026852;28;20541;-79
2021/10/06 09:20:35;;;;;;;5.50;2.07;;;14.90;99.90;;;;;;5018806;28;20489;-80
2021/10/06 09:23:05;;;;;;;3.47;1.20;;;15.00;99.90;;;;;;5020649;28;20476;-80
2021/10/06 09:25:37;;;;;;;4.53;1.30;;;15.00;99.90;;;;;;5019378;28;20800;-79
2021/10/06 09:28:08;;;;;;;5.70;1.57;;;15.10;99.90;;;;;;5019362;28;20389;-79
2021/10/06 09:30:35;;;;;;;6.20;1.50;;;15.20;99.90;;;;;;5021416;28;20446;-79
2021/10/06 09:33:04;;;;;;;5.47;1.87;;;15.10;99.90;;;;;;5020873;28;20477;-79
2021/10/06 09:35:31;;;;;;;4.97;1.47;;;15.10;99.90;;;;;;5018555;28;20939;-79
2021/10/06 09:37:59;;;;;;;4.67;1.40;;;15.10;99.90;;;;;;5019102;28;20494;-78
2021/10/06 09:40:28;;;;;;;6.70;1.60;;;15.20;99.90;;;;;;5019170;28;20676;-80
2021/10/06 09:42:56;;;;;;;5.73;1.30;;;15.30;99.90;;;;;;5018725;28;20453;-78
2021/10/06 09:45:26;;;;;;;4.20;1.00;;;15.40;99.90;;;;;;5019819;28;20442;-77
2021/10/06 09:48:08;;;;;;;4.90;1.33;;;15.50;99.90;;;;;;5032746;28;20937;-78
2021/10/06 09:50:37;;;;;;;6.33;1.60;;;15.60;99.90;;;;;;5019376;28;20437;-80
2021/10/06 09:53:12;;;;;;;7.13;1.60;;;15.80;99.90;;;;;;5019317;28;20556;-79
2021/10/06 09:55:42;;;;;;;4.87;1.47;;;15.70;99.90;;;;;;5025391;28;20417;-77
2021/10/06 09:58:11;;;;;;;5.07;1.20;;;15.80;99.90;;;;;;5028916;28;20861;-78
2021/10/06 10:00:38;;;;;;;4.23;1.50;;;15.80;99.90;;;;;;5020061;28;20493;-78
2021/10/06 10:03:06;;;;;;;5.50;1.10;;;15.90;99.90;;;;;;5020125;28;20553;-79
2021/10/06 10:05:36;;;;;;;5.87;2.10;;;15.90;99.90;;;;;;5019480;28;20432;-78
2021/10/06 10:08:04;;;;;;;5.63;2.53;;;15.80;99.90;;;;;;5000683;28;20418;-78
2021/10/06 10:10:35;;;;;;;5.47;2.10;;;15.70;99.90;;;;;;5001540;28;20483;-78
2021/10/06 10:13:03;;;;;;;3.00;1.00;;;15.80;99.90;;;;;;4999921;28;20468;-79
2021/10/06 10:15:31;;;;;;;4.23;1.50;;;15.60;99.90;;;;;;5011770;28;20430;-79
2021/10/06 10:18:01;;;;;;;6.70;1.03;;;15.50;99.90;;;;;;5022086;28;20455;-78
2021/10/06 10:20:32;;;;;;;3.80;1.23;;;15.10;99.90;;;;;;5018732;28;20524;-78
2021/10/06 10:23:01;;;;;;;3.00;0.97;;;14.70;99.90;;;;;;5019185;28;20838;-78
2021/10/06 10:25:30;;;;;;;3.57;1.20;;;14.30;99.90;;;;;;5019013;28;20537;-80
2021/10/06 10:28:03;;;;;;;4.23;0.93;;;14.20;99.90;;;;;;5019908;28;20453;-80
2021/10/06 10:30:32;;;;;;;4.50;1.03;;;14.30;99.90;;;;;;5020774;28;20528;-80
2021/10/06 10:32:59;;;;;;;5.60;1.13;;;14.30;99.90;;;;;;5019782;28;20877;-80
2021/10/06 10:35:37;;;;;;;6.97;1.50;;;14.50;99.90;;;;;;5018869;28;20426;-79
2021/10/06 10:38:10;;;;;;;7.53;1.57;;;14.60;99.90;;;;;;4999525;28;20464;-78
2021/10/06 10:40:40;;;;;;;3.63;1.77;;;14.80;99.90;;;;;;4999212;28;21002;-79
2021/10/06 10:43:10;;;;;;;5.73;1.50;;;15.00;99.90;;;;;;4999643;28;20541;-79
2021/10/06 10:45:42;;;;;;;3.90;1.10;;;15.10;99.90;;;;;;4999119;28;20862;-79
2021/10/06 10:48:11;;;;;;;4.23;1.77;;;15.20;99.90;;;;;;5003338;28;20433;-79
2021/10/06 10:50:39;;;;;;;6.07;1.70;;;15.30;99.90;;;;;;5018361;28;20457;-79
2021/10/06 10:53:08;;;;;;;4.60;1.60;;;15.30;99.90;;;;;;5017702;28;20474;-79
2021/10/06 10:55:52;;;;;;;5.40;1.40;;;15.20;99.90;;;;;;5019185;28;20442;-79
2021/10/06 10:58:29;;;;;;;4.80;1.37;;;14.80;99.90;;;;;;5003997;28;20448;-79
2021/10/06 11:00:56;;;;;;;5.20;1.43;;;14.70;99.90;;;;;;5001102;28;20478;-79
2021/10/06 11:03:23;;;;;;;3.77;1.30;;;14.60;99.90;;;;;;5000013;28;20480;-80
2021/10/06 11:05:56;;;;;;;4.50;1.60;;;14.70;99.90;;;;;;5000778;28;20840;-79
2021/10/06 11:08:25;;;;;;;4.33;1.87;;;14.70;99.90;;;;;;5019397;28;20438;-79
2021/10/06 11:11:29;;;;;;;8.10;2.83;;;14.80;99.90;;;;;;5019631;28;20447;-80
2021/10/06 11:14:17;;;;;;;4.90;1.33;;;15.20;99.90;;;;;;5021171;28;20421;-79
2021/10/06 11:17:05;;;;;;;3.87;1.30;;;15.40;99.90;;;;;;5027289;28;20525;-78
2021/10/06 11:19:40;;;;;;;5.37;1.80;;;15.50;99.90;;;;;;5024848;28;20534;-79
2021/10/06 11:22:41;;;;;;;4.87;1.60;;;15.50;99.90;;;;;;5025153;28;20994;-78
2021/10/06 11:25:09;;;;;;;3.70;1.70;;;15.80;99.90;;;;;;5019097;28;20435;-78
2021/10/06 11:27:46;;;;;;;4.13;1.57;;;15.70;99.90;;;;;;5017691;28;20995;-79
2021/10/06 11:30:16;;;;;;;5.17;1.50;;;15.80;99.90;;;;;;5019560;28;20433;-80
2021/10/06 11:32:47;;;;;;;4.90;1.80;;;16.00;99.90;;;;;;5026983;28;20472;-79
2021/10/06 11:35:15;;;;;;;4.43;1.60;;;16.00;99.90;;;;;;5020822;28;20446;-79
2021/10/06 11:37:42;;;;;;;6.30;1.80;;;16.00;99.90;;;;;;5018134;28;20454;-79
2021/10/06 11:40:10;;;;;;;5.90;1.60;;;16.00;99.90;;;;;;5018968;28;20561;-79
2021/10/06 11:42:37;;;;;;;11.77;3.60;;;16.20;99.90;;;;;;5018195;28;20462;-79
2021/10/06 11:45:06;;;;;;;6.33;1.93;;;16.20;99.90;;;;;;5018748;28;20519;-80
2021/10/06 11:47:37;;;;;;;12.40;3.83;;;16.20;99.90;;;;;;5019530;28;20497;-78
2021/10/06 11:50:05;;;;;;;8.27;1.40;;;16.30;99.90;;;;;;5017659;28;20411;-79
2021/10/06 11:52:32;;;;;;;3.60;1.10;;;16.20;99.90;;;;;;5019307;28;20511;-79
2021/10/06 11:54:59;;;;;;;4.43;1.70;;;16.30;99.90;;;;;;5020135;28;20488;-77
2021/10/06 11:57:26;;;;;;;5.50;0.87;;;16.40;99.90;;;;;;5030608;28;20511;-80
2021/10/06 11:59:53;;;;;;;3.70;1.70;;;16.30;99.90;;;;;;5018035;28;20904;-79
2021/10/06 12:02:22;;;;;;;4.60;1.47;;;16.20;99.90;;;;;;5017161;28;20437;-79
2021/10/06 12:04:52;;;;;;;3.13;1.13;;;16.20;99.90;;;;;;5017496;28;20520;-79
2021/10/06 12:07:20;;;;;;;3.93;1.00;;;16.30;99.90;;;;;;5017640;28;20411;-79
2021/10/06 12:09:50;;;;;;;8.87;1.97;;;16.50;99.90;;;;;;5018098;28;20496;-79
2021/10/06 12:12:19;;;;;;;8.17;1.83;;;16.50;99.90;;;;;;5017634;28;20453;-79
2021/10/06 12:14:47;;;;;;;4.97;1.30;;;16.50;99.90;;;;;;5017343;28;20433;-77
2021/10/06 12:17:18;;;;;;;5.00;1.57;;;16.40;99.90;;;;;;5017324;28;20469;-79
2021/10/06 12:19:58;;;;;;;4.13;1.70;;;16.20;99.90;;;;;;5019132;28;20804;-79
2021/10/06 12:22:31;;;;;;;8.57;1.70;;;16.00;99.90;;;;;;5016114;28;20447;-80
2021/10/06 12:24:58;;;;;;;4.43;1.20;;;16.00;99.90;;;;;;5014593;28;20527;-80
2021/10/06 12:27:27;;;;;;;4.40;1.00;;;16.00;99.90;;;;;;5015610;28;20524;-79
2021/10/06 12:30:06;;;;;;;4.13;0.90;;;15.60;99.90;;;;;;5021780;28;20465;-80
2021/10/06 12:32:33;;;;;;;4.83;1.20;;;15.20;99.90;;;;;;5016748;28;20480;-79
2021/10/06 12:35:06;;;;;;;5.60;1.30;;;14.90;99.90;;;;;;5017277;28;20451;-80
2021/10/06 12:37:33;;;;;;;3.07;1.10;;;14.70;99.90;;;;;;5023758;28;20428;-80
2021/10/06 12:40:00;;;;;;;3.60;0.83;;;14.70;99.90;;;;;;5042868;28;20441;-84
2021/10/06 12:42:27;;;;;;;5.20;1.30;;;14.70;99.90;;;;;;5024923;28;20515;-89
2021/10/06 12:44:54;;;;;;;4.43;1.07;;;14.70;99.90;;;;;;5022522;28;20481;-80
2021/10/06 12:47:22;;;;;;;2.37;0.60;;;14.70;99.90;;;;;;5029118;28;20475;-81
2021/10/06 12:49:51;;;;;;;4.77;1.03;;;14.70;99.90;;;;;;5021797;28;20979;-80
2021/10/06 12:52:26;;;;;;;6.20;1.63;;;14.70;99.90;;;;;;5020236;28;21023;-81